sensor_id;sensor_type;location;lat;lon;timestamp;pressure;altitude;pressure_sealevel;temperature;humidity
21863;BME280;11096;51.338;12.524;2023-09-19T00:01:07;99324.31;;;19.89;76.69
21863;BME280;11096;51.338;12.524;2023-09-19T00:03:36;99330.06;;;19.78;76.78
21863;BME280;11096;51.338;12.524;2023-09-19T00:06:03;99329.25;;;19.63;77.67
21863;BME280;11096;51.338;12.524;2023-09-19T00:08:30;99323.31;;;19.61;77.57
21863;BME280;11096;51.338;12.524;2023-09-19T00:10:56;99322.09;;;19.57;77.23
21863;BME280;11096;51.338;12.524;2023-09-19T00:13:21;99321.47;;;19.40;77.58
21863;BME280;11096;51.338;12.524;2023-09-19T00:15:48;99326.63;;;19.48;77.74
21863;BME280;11096;51.338;12.524;2023-09-19T00:18:19;99325.97;;;19.46;78.05
21863;BME280;11096;51.338;12.524;2023-09-19T00:20:49;99333.97;;;19.52;77.92
21863;BME280;11096;51.338;12.524;2023-09-19T00:23:16;99328.81;;;19.59;77.31
21863;BME280;11096;51.338;12.524;2023-09-19T00:25:42;99335.63;;;19.09;78.57
21863;BME280;11096;51.338;12.524;2023-09-19T00:28:08;99331.00;;;19.11;78.59
21863;BME280;11096;51.338;12.524;2023-09-19T00:30:34;99327.28;;;19.20;79.22
21863;BME280;11096;51.338;12.524;2023-09-19T00:33:00;99329.34;;;18.95;79.00
21863;BME280;11096;51.338;12.524;2023-09-19T00:35:27;99324.72;;;19.12;79.54
21863;BME280;11096;51.338;12.524;2023-09-19T00:37:53;99327.19;;;19.14;79.34
21863;BME280;11096;51.338;12.524;2023-09-19T00:40:19;99330.63;;;19.29;79.43
21863;BME280;11096;51.338;12.524;2023-09-19T00:42:47;99338.53;;;19.29;78.73
21863;BME280;11096;51.338;12.524;2023-09-19T00:45:14;99323.53;;;19.29;79.32
21863;BME280;11096;51.338;12.524;2023-09-19T00:47:50;99325.88;;;19.39;79.24
21863;BME280;11096;51.338;12.524;2023-09-19T00:50:18;99322.00;;;19.35;79.23
21863;BME280;11096;51.338;12.524;2023-09-19T00:52:46;99316.19;;;19.40;78.47
21863;BME280;11096;51.338;12.524;2023-09-19T00:55:12;99321.09;;;19.43;78.57
21863;BME280;11096;51.338;12.524;2023-09-19T00:57:38;99320.06;;;19.44;78.51
21863;BME280;11096;51.338;12.524;2023-09-19T01:00:06;99321.25;;;19.41;78.69
21863;BME280;11096;51.338;12.524;2023-09-19T01:02:33;99329.25;;;19.48;78.05
21863;BME280;11096;51.338;12.524;2023-09-19T01:04:59;99325.81;;;19.33;79.06
21863;BME280;11096;51.338;12.524;2023-09-19T01:07:26;99324.91;;;19.40;78.67
21863;BME280;11096;51.338;12.524;2023-09-19T01:09:56;99320.00;;;19.22;78.86
21863;BME280;11096;51.338;12.524;2023-09-19T01:12:32;99320.28;;;19.42;78.99
21863;BME280;11096;51.338;12.524;2023-09-19T01:15:11;99325.44;;;19.36;79.20
21863;BME280;11096;51.338;12.524;2023-09-19T01:17:46;99316.81;;;19.42;78.77
21863;BME280;11096;51.338;12.524;2023-09-19T01:20:24;99320.28;;;19.42;78.59
21863;BME280;11096;51.338;12.524;2023-09-19T01:28:34;99325.19;;;19.30;79.07
21863;BME280;11096;51.338;12.524;2023-09-19T01:31:09;99320.09;;;19.29;79.26
21863;BME280;11096;51.338;12.524;2023-09-19T01:33:57;99333.91;;;19.31;78.85
21863;BME280;11096;51.338;12.524;2023-09-19T01:36:23;99341.25;;;19.21;79.69
21863;BME280;11096;51.338;12.524;2023-09-19T01:38:50;99332.97;;;19.24;79.19
21863;BME280;11096;51.338;12.524;2023-09-19T01:41:21;99340.63;;;19.19;79.30
21863;BME280;11096;51.338;12.524;2023-09-19T01:43:49;99349.25;;;19.13;79.67
21863;BME280;11096;51.338;12.524;2023-09-19T01:46:22;99341.69;;;19.09;79.95
21863;BME280;11096;51.338;12.524;2023-09-19T01:52:14;99352.31;;;19.01;80.90
21863;BME280;11096;51.338;12.524;2023-09-19T01:54:49;99365.47;;;19.01;80.16
21863;BME280;11096;51.338;12.524;2023-09-19T01:57:22;99361.66;;;18.89;80.38
21863;BME280;11096;51.338;12.524;2023-09-19T02:00:05;99365.56;;;18.93;79.73
21863;BME280;11096;51.338;12.524;2023-09-19T02:02:47;99370.28;;;18.83;79.99
21863;BME280;11096;51.338;12.524;2023-09-19T02:05:13;99372.28;;;18.73;80.37
21863;BME280;11096;51.338;12.524;2023-09-19T02:07:39;99375.16;;;18.86;80.28
21863;BME280;11096;51.338;12.524;2023-09-19T02:10:06;99386.41;;;18.34;80.39
21863;BME280;11096;51.338;12.524;2023-09-19T02:12:32;99390.53;;;18.74;79.98
21863;BME280;11096;51.338;12.524;2023-09-19T02:14:58;99387.25;;;18.72;81.29
21863;BME280;11096;51.338;12.524;2023-09-19T02:17:24;99394.66;;;18.77;80.77
21863;BME280;11096;51.338;12.524;2023-09-19T02:19:53;99396.63;;;18.98;80.62
21863;BME280;11096;51.338;12.524;2023-09-19T02:22:20;99399.06;;;18.99;78.91
21863;BME280;11096;51.338;12.524;2023-09-19T02:24:45;99395.84;;;19.27;77.80
21863;BME280;11096;51.338;12.524;2023-09-19T02:27:13;99402.19;;;19.18;76.86
21863;BME280;11096;51.338;12.524;2023-09-19T02:29:41;99404.84;;;19.18;76.64
21863;BME280;11096;51.338;12.524;2023-09-19T02:32:06;99392.91;;;19.07;75.73
21863;BME280;11096;51.338;12.524;2023-09-19T02:34:32;99395.63;;;18.99;75.37
21863;BME280;11096;51.338;12.524;2023-09-19T02:36:57;99406.06;;;19.07;76.07
21863;BME280;11096;51.338;12.524;2023-09-19T02:39:23;99401.81;;;19.06;75.79
21863;BME280;11096;51.338;12.524;2023-09-19T02:41:49;99404.56;;;19.13;75.50
21863;BME280;11096;51.338;12.524;2023-09-19T02:44:14;99410.78;;;18.97;74.88
21863;BME280;11096;51.338;12.524;2023-09-19T02:46:40;99408.94;;;18.97;76.16
21863;BME280;11096;51.338;12.524;2023-09-19T02:49:05;99409.78;;;18.98;76.07
21863;BME280;11096;51.338;12.524;2023-09-19T02:51:32;99403.56;;;18.76;76.22
21863;BME280;11096;51.338;12.524;2023-09-19T02:53:59;99404.75;;;18.42;77.83
21863;BME280;11096;51.338;12.524;2023-09-19T02:56:24;99403.84;;;18.73;77.24
21863;BME280;11096;51.338;12.524;2023-09-19T02:58:50;99399.91;;;18.77;76.82
21863;BME280;11096;51.338;12.524;2023-09-19T03:01:16;99401.06;;;18.97;76.21
21863;BME280;11096;51.338;12.524;2023-09-19T03:03:43;99399.88;;;19.00;75.76
21863;BME280;11096;51.338;12.524;2023-09-19T03:06:10;99398.09;;;19.00;75.80
21863;BME280;11096;51.338;12.524;2023-09-19T03:08:39;99396.56;;;19.21;74.84
21863;BME280;11096;51.338;12.524;2023-09-19T03:11:05;99402.91;;;19.12;74.81
21863;BME280;11096;51.338;12.524;2023-09-19T03:13:32;99397.56;;;19.20;73.98
21863;BME280;11096;51.338;12.524;2023-09-19T03:15:57;99397.56;;;19.20;73.98
21863;BME280;11096;51.338;12.524;2023-09-19T03:18:26;99408.94;;;19.35;73.38
21863;BME280;11096;51.338;12.524;2023-09-19T03:20:58;99405.03;;;19.46;73.36
21863;BME280;11096;51.338;12.524;2023-09-19T03:23:27;99417.00;;;19.34;72.78
21863;BME280;11096;51.338;12.524;2023-09-19T03:25:53;99418.31;;;19.38;72.69
21863;BME280;11096;51.338;12.524;2023-09-19T03:28:19;99409.50;;;19.45;72.57
21863;BME280;11096;51.338;12.524;2023-09-19T03:30:46;99417.41;;;19.45;72.57
21863;BME280;11096;51.338;12.524;2023-09-19T03:33:12;99415.13;;;19.42;72.28
21863;BME280;11096;51.338;12.524;2023-09-19T03:35:38;99421.91;;;19.37;72.30
21863;BME280;11096;51.338;12.524;2023-09-19T03:38:05;99426.59;;;19.49;72.06
21863;BME280;11096;51.338;12.524;2023-09-19T03:40:30;99433.19;;;19.30;72.09
21863;BME280;11096;51.338;12.524;2023-09-19T03:42:56;99431.66;;;19.36;72.23
21863;BME280;11096;51.338;12.524;2023-09-19T03:45:21;99432.66;;;19.35;72.38
21863;BME280;11096;51.338;12.524;2023-09-19T03:47:47;99430.03;;;19.35;72.21
21863;BME280;11096;51.338;12.524;2023-09-19T03:50:12;99427.09;;;19.15;72.64
21863;BME280;11096;51.338;12.524;2023-09-19T03:52:40;99430.72;;;19.29;72.64
21863;BME280;11096;51.338;12.524;2023-09-19T03:55:06;99430.97;;;19.19;72.11
21863;BME280;11096;51.338;12.524;2023-09-19T03:57:31;99431.81;;;19.20;72.51
21863;BME280;11096;51.338;12.524;2023-09-19T03:59:57;99426.88;;;19.17;71.68
21863;BME280;11096;51.338;12.524;2023-09-19T04:02:23;99438.50;;;19.07;72.84
21863;BME280;11096;51.338;12.524;2023-09-19T04:04:49;99441.44;;;19.13;72.61
21863;BME280;11096;51.338;12.524;2023-09-19T04:07:15;99441.22;;;19.14;72.77
21863;BME280;11096;51.338;12.524;2023-09-19T04:09:41;99442.50;;;19.03;72.77
21863;BME280;11096;51.338;12.524;2023-09-19T04:12:07;99441.19;;;18.99;73.26
21863;BME280;11096;51.338;12.524;2023-09-19T04:14:34;99446.94;;;18.80;73.17
21863;BME280;11096;51.338;12.524;2023-09-19T04:16:59;99445.19;;;18.95;73.16
21863;BME280;11096;51.338;12.524;2023-09-19T04:19:25;99448.28;;;18.99;73.30
21863;BME280;11096;51.338;12.524;2023-09-19T04:21:51;99458.66;;;19.00;73.09
21863;BME280;11096;51.338;12.524;2023-09-19T04:24:16;99461.59;;;18.74;73.18
21863;BME280;11096;51.338;12.524;2023-09-19T04:26:44;99459.28;;;18.79;73.34
21863;BME280;11096;51.338;12.524;2023-09-19T04:29:10;99459.19;;;18.64;74.09
21863;BME280;11096;51.338;12.524;2023-09-19T04:31:38;99468.00;;;18.80;74.20
21863;BME280;11096;51.338;12.524;2023-09-19T04:34:08;99464.72;;;18.78;73.24
21863;BME280;11096;51.338;12.524;2023-09-19T04:36:35;99478.09;;;18.68;74.05
21863;BME280;11096;51.338;12.524;2023-09-19T04:39:02;99471.28;;;18.82;73.90
21863;BME280;11096;51.338;12.524;2023-09-19T04:41:30;99472.00;;;18.67;73.95
21863;BME280;11096;51.338;12.524;2023-09-19T04:43:55;99480.84;;;18.75;74.04
21863;BME280;11096;51.338;12.524;2023-09-19T04:46:21;99473.34;;;18.63;73.45
21863;BME280;11096;51.338;12.524;2023-09-19T04:48:46;99486.72;;;18.54;73.74
21863;BME280;11096;51.338;12.524;2023-09-19T04:51:12;99485.28;;;18.51;74.43
21863;BME280;11096;51.338;12.524;2023-09-19T04:53:38;99489.22;;;18.47;74.46
21863;BME280;11096;51.338;12.524;2023-09-19T04:56:04;99491.41;;;18.66;73.95
21863;BME280;11096;51.338;12.524;2023-09-19T04:58:31;99489.25;;;18.70;73.50
21863;BME280;11096;51.338;12.524;2023-09-19T05:00:57;99494.66;;;18.45;73.36
21863;BME280;11096;51.338;12.524;2023-09-19T05:03:22;99498.63;;;18.41;73.24
21863;BME280;11096;51.338;12.524;2023-09-19T05:05:48;99503.34;;;18.54;73.42
21863;BME280;11096;51.338;12.524;2023-09-19T05:08:14;99503.34;;;18.54;72.88
21863;BME280;11096;51.338;12.524;2023-09-19T05:10:40;99504.59;;;18.66;71.96
21863;BME280;11096;51.338;12.524;2023-09-19T05:13:06;99516.31;;;18.87;71.53
21863;BME280;11096;51.338;12.524;2023-09-19T05:15:33;99521.00;;;18.77;71.14
21863;BME280;11096;51.338;12.524;2023-09-19T05:17:58;99517.91;;;18.65;71.16
21863;BME280;11096;51.338;12.524;2023-09-19T05:20:24;99528.91;;;18.69;72.10
21863;BME280;11096;51.338;12.524;2023-09-19T05:23:05;99524.63;;;17.97;72.80
21863;BME280;11096;51.338;12.524;2023-09-19T05:25:35;99532.88;;;17.53;76.61
21863;BME280;11096;51.338;12.524;2023-09-19T05:28:08;99527.19;;;18.13;76.46
21863;BME280;11096;51.338;12.524;2023-09-19T05:30:35;99527.72;;;18.40;73.48
21863;BME280;11096;51.338;12.524;2023-09-19T05:33:02;99537.19;;;18.57;72.20
21863;BME280;11096;51.338;12.524;2023-09-19T05:35:27;99550.78;;;18.30;72.42
21863;BME280;11096;51.338;12.524;2023-09-19T05:37:53;99555.84;;;17.67;74.14
21863;BME280;11096;51.338;12.524;2023-09-19T05:40:20;99544.56;;;18.62;71.68
21863;BME280;11096;51.338;12.524;2023-09-19T05:42:46;99556.22;;;18.76;70.75
21863;BME280;11096;51.338;12.524;2023-09-19T05:45:12;99557.34;;;18.73;70.95
21863;BME280;11096;51.338;12.524;2023-09-19T05:47:41;99552.25;;;18.72;70.67
21863;BME280;11096;51.338;12.524;2023-09-19T05:50:08;99569.41;;;18.59;70.72
21863;BME280;11096;51.338;12.524;2023-09-19T05:52:35;99568.69;;;18.74;69.95
21863;BME280;11096;51.338;12.524;2023-09-19T05:55:02;99569.72;;;18.64;69.65
21863;BME280;11096;51.338;12.524;2023-09-19T05:57:30;99575.03;;;18.48;70.18
21863;BME280;11096;51.338;12.524;2023-09-19T05:59:55;99574.69;;;18.59;69.53
21863;BME280;11096;51.338;12.524;2023-09-19T06:02:21;99583.06;;;17.74;72.34
21863;BME280;11096;51.338;12.524;2023-09-19T06:04:46;99581.19;;;18.72;69.63
21863;BME280;11096;51.338;12.524;2023-09-19T06:07:11;99577.31;;;18.59;70.76
21863;BME280;11096;51.338;12.524;2023-09-19T06:09:37;99586.44;;;18.80;68.62
21863;BME280;11096;51.338;12.524;2023-09-19T06:12:02;99575.13;;;19.02;67.27
21863;BME280;11096;51.338;12.524;2023-09-19T06:14:29;99587.13;;;18.26;68.10
21863;BME280;11096;51.338;12.524;2023-09-19T06:16:56;99592.59;;;18.16;68.54
21863;BME280;11096;51.338;12.524;2023-09-19T06:19:21;99593.91;;;18.99;66.54
21863;BME280;11096;51.338;12.524;2023-09-19T06:21:48;99603.41;;;18.30;68.12
21863;BME280;11096;51.338;12.524;2023-09-19T06:24:14;99606.53;;;19.35;66.07
21863;BME280;11096;51.338;12.524;2023-09-19T06:26:40;99607.41;;;19.27;65.96
21863;BME280;11096;51.338;12.524;2023-09-19T06:29:05;99614.16;;;18.59;66.10
21863;BME280;11096;51.338;12.524;2023-09-19T06:31:33;99613.25;;;19.61;65.33
21863;BME280;11096;51.338;12.524;2023-09-19T06:33:58;99615.63;;;19.93;64.03
21863;BME280;11096;51.338;12.524;2023-09-19T06:36:24;99616.88;;;20.21;63.28
21863;BME280;11096;51.338;12.524;2023-09-19T06:38:49;99619.59;;;20.27;63.54
21863;BME280;11096;51.338;12.524;2023-09-19T06:41:16;99617.16;;;20.26;63.86
21863;BME280;11096;51.338;12.524;2023-09-19T06:43:42;99625.16;;;19.34;66.10
21863;BME280;11096;51.338;12.524;2023-09-19T06:46:07;99617.22;;;20.17;62.91
21863;BME280;11096;51.338;12.524;2023-09-19T06:48:33;99610.25;;;19.72;63.08
21863;BME280;11096;51.338;12.524;2023-09-19T06:50:59;99614.31;;;19.51;64.35
21863;BME280;11096;51.338;12.524;2023-09-19T06:53:27;99613.06;;;20.23;62.31
21863;BME280;11096;51.338;12.524;2023-09-19T06:55:52;99620.22;;;19.53;63.09
21863;BME280;11096;51.338;12.524;2023-09-19T06:58:18;99616.06;;;21.01;60.86
21863;BME280;11096;51.338;12.524;2023-09-19T07:00:44;99619.09;;;20.98;59.74
21863;BME280;11096;51.338;12.524;2023-09-19T07:03:10;99624.66;;;21.39;58.69
21863;BME280;11096;51.338;12.524;2023-09-19T07:05:38;99630.47;;;21.35;57.45
21863;BME280;11096;51.338;12.524;2023-09-19T07:08:06;99629.78;;;21.11;57.76
21863;BME280;11096;51.338;12.524;2023-09-19T07:10:32;99638.50;;;21.41;56.88
21863;BME280;11096;51.338;12.524;2023-09-19T07:13:03;99634.69;;;20.93;57.37
21863;BME280;11096;51.338;12.524;2023-09-19T07:15:32;99645.44;;;20.91;58.26
21863;BME280;11096;51.338;12.524;2023-09-19T07:18:02;99648.03;;;22.14;55.16
21863;BME280;11096;51.338;12.524;2023-09-19T07:20:27;99641.94;;;22.41;53.32
21863;BME280;11096;51.338;12.524;2023-09-19T07:22:56;99651.72;;;22.13;53.10
21863;BME280;11096;51.338;12.524;2023-09-19T07:25:25;99658.47;;;21.94;53.70
21863;BME280;11096;51.338;12.524;2023-09-19T07:27:50;99665.47;;;22.29;52.97
21863;BME280;11096;51.338;12.524;2023-09-19T07:30:16;99664.59;;;21.94;53.61
21863;BME280;11096;51.338;12.524;2023-09-19T07:32:42;99660.56;;;21.98;52.96
21863;BME280;11096;51.338;12.524;2023-09-19T07:35:07;99659.47;;;21.93;51.84
21863;BME280;11096;51.338;12.524;2023-09-19T07:37:34;99670.09;;;21.71;52.25
21863;BME280;11096;51.338;12.524;2023-09-19T07:40:01;99672.91;;;21.70;52.79
21863;BME280;11096;51.338;12.524;2023-09-19T07:42:28;99678.19;;;21.12;53.61
21863;BME280;11096;51.338;12.524;2023-09-19T07:44:53;99669.44;;;21.48;52.46
21863;BME280;11096;51.338;12.524;2023-09-19T07:47:20;99678.13;;;21.63;52.05
21863;BME280;11096;51.338;12.524;2023-09-19T07:49:47;99682.63;;;22.34;49.83
21863;BME280;11096;51.338;12.524;2023-09-19T07:52:13;99688.47;;;22.29;50.06
21863;BME280;11096;51.338;12.524;2023-09-19T07:54:39;99689.19;;;22.44;48.74
21863;BME280;11096;51.338;12.524;2023-09-19T07:57:06;99692.00;;;22.71;49.23
21863;BME280;11096;51.338;12.524;2023-09-19T07:59:32;99701.03;;;22.83;48.33
21863;BME280;11096;51.338;12.524;2023-09-19T08:01:58;99706.28;;;21.92;49.61
21863;BME280;11096;51.338;12.524;2023-09-19T08:04:23;99711.81;;;22.47;48.52
21863;BME280;11096;51.338;12.524;2023-09-19T08:06:51;99709.44;;;22.93;48.15
21863;BME280;11096;51.338;12.524;2023-09-19T08:09:17;99709.19;;;22.88;48.37
21863;BME280;11096;51.338;12.524;2023-09-19T08:11:46;99702.94;;;23.51;47.25
21863;BME280;11096;51.338;12.524;2023-09-19T08:14:12;99720.38;;;22.84;48.53
21863;BME280;11096;51.338;12.524;2023-09-19T08:16:39;99716.06;;;22.76;48.65
21863;BME280;11096;51.338;12.524;2023-09-19T08:19:05;99723.47;;;22.53;49.83
21863;BME280;11096;51.338;12.524;2023-09-19T08:21:31;99711.47;;;22.57;48.99
21863;BME280;11096;51.338;12.524;2023-09-19T08:23:57;99724.56;;;21.87;49.97
21863;BME280;11096;51.338;12.524;2023-09-19T08:26:22;99715.25;;;22.19;49.26
21863;BME280;11096;51.338;12.524;2023-09-19T08:28:49;99726.75;;;22.05;50.11
21863;BME280;11096;51.338;12.524;2023-09-19T08:31:16;99717.03;;;22.34;49.18
21863;BME280;11096;51.338;12.524;2023-09-19T08:33:43;99723.75;;;22.36;48.85
21863;BME280;11096;51.338;12.524;2023-09-19T08:36:10;99716.50;;;21.74;49.92
21863;BME280;11096;51.338;12.524;2023-09-19T08:38:39;99716.75;;;21.79;49.99
21863;BME280;11096;51.338;12.524;2023-09-19T08:41:07;99731.22;;;22.26;50.06
21863;BME280;11096;51.338;12.524;2023-09-19T08:43:35;99723.56;;;21.88;50.18
21863;BME280;11096;51.338;12.524;2023-09-19T08:46:11;99722.03;;;22.22;50.23
21863;BME280;11096;51.338;12.524;2023-09-19T08:48:45;99722.88;;;22.07;50.38
21863;BME280;11096;51.338;12.524;2023-09-19T08:51:18;99724.16;;;21.90;50.89
21863;BME280;11096;51.338;12.524;2023-09-19T08:56:32;99725.34;;;22.59;50.30
21863;BME280;11096;51.338;12.524;2023-09-19T08:59:02;99722.38;;;22.40;49.00
21863;BME280;11096;51.338;12.524;2023-09-19T09:01:28;99710.78;;;23.18;48.52
21863;BME280;11096;51.338;12.524;2023-09-19T09:03:55;99727.91;;;22.80;48.67
21863;BME280;11096;51.338;12.524;2023-09-19T09:06:21;99721.66;;;23.29;48.21
21863;BME280;11096;51.338;12.524;2023-09-19T09:08:50;99736.78;;;23.42;47.69
21863;BME280;11096;51.338;12.524;2023-09-19T09:11:16;99737.75;;;23.21;48.36
21863;BME280;11096;51.338;12.524;2023-09-19T09:13:46;99729.69;;;23.63;47.13
21863;BME280;11096;51.338;12.524;2023-09-19T09:16:12;99727.44;;;23.53;47.56
21863;BME280;11096;51.338;12.524;2023-09-19T09:18:39;99722.25;;;24.19;46.34
21863;BME280;11096;51.338;12.524;2023-09-19T09:21:04;99724.69;;;24.48;45.89
21863;BME280;11096;51.338;12.524;2023-09-19T09:23:30;99725.88;;;24.58;45.13
21863;BME280;11096;51.338;12.524;2023-09-19T09:25:57;99714.88;;;24.28;44.95
21863;BME280;11096;51.338;12.524;2023-09-19T09:28:29;99718.56;;;24.47;44.13
21863;BME280;11096;51.338;12.524;2023-09-19T09:30:56;99720.50;;;24.92;42.90
21863;BME280;11096;51.338;12.524;2023-09-19T09:33:23;99716.91;;;24.59;43.50
21863;BME280;11096;51.338;12.524;2023-09-19T09:35:54;99718.34;;;24.49;42.40
21863;BME280;11096;51.338;12.524;2023-09-19T09:38:28;99722.28;;;26.38;41.17
21863;BME280;11096;51.338;12.524;2023-09-19T09:40:58;99715.78;;;26.09;39.60
21863;BME280;11096;51.338;12.524;2023-09-19T09:49:04;99710.22;;;27.88;34.38
21863;BME280;11096;51.338;12.524;2023-09-19T09:52:05;99701.94;;;28.96;31.66
21863;BME280;11096;51.338;12.524;2023-09-19T09:54:58;99703.25;;;28.81;29.71
21863;BME280;11096;51.338;12.524;2023-09-19T09:57:24;99708.84;;;27.25;30.23
21863;BME280;11096;51.338;12.524;2023-09-19T09:59:51;99703.03;;;26.98;30.34
21863;BME280;11096;51.338;12.524;2023-09-19T10:02:36;99703.88;;;27.29;31.27
21863;BME280;11096;51.338;12.524;2023-09-19T10:05:17;99700.38;;;27.58;30.46
21863;BME280;11096;51.338;12.524;2023-09-19T10:07:49;99707.53;;;26.79;31.32
21863;BME280;11096;51.338;12.524;2023-09-19T10:10:30;99718.78;;;26.38;32.69
21863;BME280;11096;51.338;12.524;2023-09-19T10:13:11;99716.78;;;25.83;33.85
21863;BME280;11096;51.338;12.524;2023-09-19T10:15:39;99717.56;;;25.83;34.64
21863;BME280;11096;51.338;12.524;2023-09-19T10:18:14;99718.00;;;25.80;35.75
21863;BME280;11096;51.338;12.524;2023-09-19T10:20:45;99722.88;;;25.13;36.67
21863;BME280;11096;51.338;12.524;2023-09-19T10:23:11;99729.47;;;24.97;36.93
21863;BME280;11096;51.338;12.524;2023-09-19T10:25:43;99728.59;;;25.17;37.41
21863;BME280;11096;51.338;12.524;2023-09-19T10:28:13;99736.31;;;25.25;37.22
21863;BME280;11096;51.338;12.524;2023-09-19T10:30:46;99740.41;;;25.27;38.25
21863;BME280;11096;51.338;12.524;2023-09-19T10:33:22;99733.03;;;26.50;36.03
21863;BME280;11096;51.338;12.524;2023-09-19T10:35:51;99737.78;;;26.23;36.03
21863;BME280;11096;51.338;12.524;2023-09-19T10:38:23;99730.72;;;26.35;35.15
21863;BME280;11096;51.338;12.524;2023-09-19T10:40:54;99735.34;;;26.21;36.00
21863;BME280;11096;51.338;12.524;2023-09-19T10:43:21;99739.31;;;26.81;35.38
21863;BME280;11096;51.338;12.524;2023-09-19T10:45:48;99732.09;;;27.36;34.30
21863;BME280;11096;51.338;12.524;2023-09-19T10:48:15;99738.72;;;27.76;33.37
21863;BME280;11096;51.338;12.524;2023-09-19T10:53:54;99729.47;;;27.48;31.90
21863;BME280;11096;51.338;12.524;2023-09-19T10:56:26;99724.81;;;28.63;31.60
21863;BME280;11096;51.338;12.524;2023-09-19T10:59:08;99732.63;;;27.27;32.62
21863;BME280;11096;51.338;12.524;2023-09-19T11:01:47;99732.44;;;27.70;32.71
21863;BME280;11096;51.338;12.524;2023-09-19T11:04:35;99737.16;;;29.73;30.16
21863;BME280;11096;51.338;12.524;2023-09-19T11:07:14;99732.03;;;29.15;30.77
21863;BME280;11096;51.338;12.524;2023-09-19T11:12:08;99737.09;;;29.57;30.21
21863;BME280;11096;51.338;12.524;2023-09-19T11:14:38;99725.31;;;28.88;30.70
21863;BME280;11096;51.338;12.524;2023-09-19T11:30:48;99730.44;;;28.90;29.98
21863;BME280;11096;51.338;12.524;2023-09-19T11:33:29;99727.97;;;29.00;29.23
21863;BME280;11096;51.338;12.524;2023-09-19T11:36:09;99721.53;;;29.25;28.99
21863;BME280;11096;51.338;12.524;2023-09-19T11:43:47;99716.69;;;30.74;27.40
21863;BME280;11096;51.338;12.524;2023-09-19T11:46:13;99711.81;;;30.71;27.67
21863;BME280;11096;51.338;12.524;2023-09-19T11:48:43;99713.91;;;31.08;27.12
21863;BME280;11096;51.338;12.524;2023-09-19T11:51:20;99719.94;;;30.37;26.71
21863;BME280;11096;51.338;12.524;2023-09-19T11:53:54;99710.63;;;29.89;28.26
21863;BME280;11096;51.338;12.524;2023-09-19T11:56:22;99717.13;;;29.76;28.17
21863;BME280;11096;51.338;12.524;2023-09-19T11:58:54;99700.91;;;29.54;27.91
21863;BME280;11096;51.338;12.524;2023-09-19T12:01:23;99703.97;;;29.74;27.28
21863;BME280;11096;51.338;12.524;2023-09-19T12:03:53;99714.44;;;29.47;28.64
21863;BME280;11096;51.338;12.524;2023-09-19T12:06:20;99700.38;;;30.36;27.73
21863;BME280;11096;51.338;12.524;2023-09-19T12:08:47;99718.75;;;29.65;28.29
21863;BME280;11096;51.338;12.524;2023-09-19T12:11:14;99721.19;;;29.79;28.89
21863;BME280;11096;51.338;12.524;2023-09-19T12:13:45;99711.97;;;29.29;28.97
21863;BME280;11096;51.338;12.524;2023-09-19T12:16:21;99712.16;;;29.39;28.60
21863;BME280;11096;51.338;12.524;2023-09-19T12:18:47;99708.81;;;30.45;27.97
21863;BME280;11096;51.338;12.524;2023-09-19T12:26:45;99708.00;;;29.31;28.97
21863;BME280;11096;51.338;12.524;2023-09-19T12:29:17;99703.25;;;28.69;29.38
21863;BME280;11096;51.338;12.524;2023-09-19T12:34:26;99711.53;;;28.09;31.04
21863;BME280;11096;51.338;12.524;2023-09-19T12:39:50;99709.78;;;28.03;31.54
21863;BME280;11096;51.338;12.524;2023-09-19T12:42:26;99705.03;;;28.40;31.15
21863;BME280;11096;51.338;12.524;2023-09-19T12:45:00;99704.22;;;28.75;31.22
21863;BME280;11096;51.338;12.524;2023-09-19T12:47:28;99700.59;;;27.87;32.12
21863;BME280;11096;51.338;12.524;2023-09-19T12:50:14;99694.78;;;27.90;31.83
21863;BME280;11096;51.338;12.524;2023-09-19T12:52:48;99693.88;;;27.66;30.62
21863;BME280;11096;51.338;12.524;2023-09-19T12:55:21;99688.25;;;27.74;31.26
21863;BME280;11096;51.338;12.524;2023-09-19T13:00:21;99698.06;;;28.04;31.30
21863;BME280;11096;51.338;12.524;2023-09-19T13:03:13;99697.28;;;27.31;32.28
21863;BME280;11096;51.338;12.524;2023-09-19T13:05:51;99703.44;;;26.95;32.33
21863;BME280;11096;51.338;12.524;2023-09-19T13:08:24;99699.38;;;26.92;32.54
21863;BME280;11096;51.338;12.524;2023-09-19T13:13:26;99690.56;;;27.10;32.05
21863;BME280;11096;51.338;12.524;2023-09-19T13:15:53;99690.28;;;27.00;32.32
21863;BME280;11096;51.338;12.524;2023-09-19T13:18:19;99686.63;;;26.94;32.64
21863;BME280;11096;51.338;12.524;2023-09-19T13:21:05;99687.22;;;27.45;32.52
21863;BME280;11096;51.338;12.524;2023-09-19T13:23:31;99683.19;;;27.24;32.22
21863;BME280;11096;51.338;12.524;2023-09-19T13:25:57;99678.84;;;27.30;31.65
21863;BME280;11096;51.338;12.524;2023-09-19T13:28:22;99674.41;;;27.77;31.09
21863;BME280;11096;51.338;12.524;2023-09-19T13:30:48;99679.22;;;27.87;31.45
21863;BME280;11096;51.338;12.524;2023-09-19T13:33:13;99675.69;;;27.75;31.24
21863;BME280;11096;51.338;12.524;2023-09-19T13:35:46;99670.97;;;27.16;32.24
21863;BME280;11096;51.338;12.524;2023-09-19T13:38:13;99674.41;;;27.24;32.68
21863;BME280;11096;51.338;12.524;2023-09-19T13:40:39;99668.94;;;27.18;32.27
21863;BME280;11096;51.338;12.524;2023-09-19T13:43:07;99677.22;;;27.10;32.20
21863;BME280;11096;51.338;12.524;2023-09-19T13:45:33;99683.31;;;26.99;33.03
21863;BME280;11096;51.338;12.524;2023-09-19T13:47:59;99681.50;;;26.38;33.53
21863;BME280;11096;51.338;12.524;2023-09-19T13:50:25;99674.66;;;26.67;32.98
21863;BME280;11096;51.338;12.524;2023-09-19T13:52:54;99667.78;;;26.59;33.38
21863;BME280;11096;51.338;12.524;2023-09-19T13:55:19;99682.25;;;26.45;33.85